Indian Rocks Beach, FL

7:49 AM EDT on September 02, 2014 (GMT -0400)
Oak Dale Manor (unincorporated Largo) | Change Station
CLOSE
Current Station
Personal Weather Station
Location: Largo, FL
Elevation: 46 ft
Nearby Weather Stations

Elev 46 ft 27.91 °N, 82.82 °W | Updated 6 minutes ago

Clear
Clear
77.4 °F
Feels Like 79 °F
N
0.0
Wind Variable Wind from SSE

Today
High -- | Low -- °F
--% Chance of Precip.
Yesterday
High -- | Low -- °F
Precip. -- in
7:10 AM 7:51 PM
Waxing Crescent, 50% visible
Pressure 30.04 in
Visibility 10.0 miles
Clouds Clear
Heat Index 79 °F
Dew Point 77 °F
Humidity 98%
Rainfall 0.00 in
Snow Depth Not available.
UV 0 out of 12
Pollen 5.20 out of 12
Air Quality Not available.
Flu Activity Not available.
METAR KPIE 021053Z 12004KT 10SM CLR 26/24 A3004 RMK AO2 SLP170 T02610239

More Conditions Fewer Conditions

Pressure 30.04 in
Visibility 10.0 miles
Clouds Clear
Heat Index 79 °F
Dew Point 77 °F
Humidity 98%
Rainfall 0.00 in
Snow Depth Not available.
UV 0 out of 12
Pollen 5.20 out of 12
Air Quality Not available.
Flu Activity Not available.
METAR KPIE 021053Z 12004KT 10SM CLR 26/24 A3004 RMK AO2 SLP170 T02610239

More Conditions Fewer Conditions

10-Day Weather Forecast

Almanac

Astronomy

Sep. 02, 2014 Rise Set
Actual Time 7:10 AM EDT 7:51 PM EDT
Civil Twilight 6:46 AM EDT 8:14 PM EDT
Nautical Twilight 6:18 AM EDT 8:42 PM EDT
Astronomical Twilight 5:50 AM EDT 9:11 PM EDT
Moon 2:17 PM EDT 12:27 AM EDT
Length of Visible Light 13h 28m
Length of Day
12h 40m
Tomorrow will be 1m 35s shorter.
Waxing Crescent, 50% of the Moon is Illuminated
Today
Waxing Crescent
Sep 8
Full
Sep 15
Last Quarter
Sep 24
New
Oct 1
First Quarter

Today's Extremes

State Highs State Lows

Community

WunderPhotos

Upload Photos

1,749,621 photos uploaded!

WunderBlogs® & News

By Dr. Jeff Masters
Director of Meteorology, Weather Underground
By Kari Strenfel
Meteorologist, Weather Underground
By Christopher C. Burt
Weather Historian, Weather Underground
September 2, 2014
September 2, 2014
September 2, 2014

Nearby

Air Quality

  Air Quality AQ Index Pollutant
Tuesday Good
PM2.5
Tuesday Good
OZONE

Snow Depth

Station Depth Elevation
No new snow has been reported.

Earthquake Activity

City Distance Mag. Time & Date
No recent earthquake activity has been reported nearby.
Minimum magnitude displayed is 2.5.

Coastal Water Temperatures

Place Temperature
Clearwater Beach, FL 87.1 °F
Port Manatee, FL 86.0 °F
St Petersburg, FL 90.0 °F
Old Port Tampa, FL 88.0 °F
McKay Bay Entrance, FL 89.1 °F

Nearby Weather Stations